Weather at Strother Field

Public forecast

Using degrees Fahrenheit for public forecast. Weather courtesy of forecast.io.

Current aviation weather report (METAR) for Strother Field

Retrieved 2020/09/24 15:54 UTC (47 minutes ago):

KWLD 241554Z AUTO 19008KT 10SM CLR 22/17 A2998 RMK AO2 SLP143 T02220167

Closest aviation forecast (TAF) to Strother Field

Closest forecast is Ponca City Regional Airport, 26.4 nm (48.9 km) S. Retrieved 2020/09/24 12:22 UTC (4 hours ago):

TAF KPNC 241120Z 2412/2512 00000KT 1/2SM FG VV001 TEMPO 2413/2414 2SM BR BKN004 FM241500 20007KT P6SM SKC FM250000 15006KT P6SM SKC